Time;durP1;ratioP1;P1;durP2;ratioP2;P2;SDS_P1;SDS_P2;PMS_P1;PMS_P2;Temp;Humidity;BMP_temperature;BMP_pressure;BME280_temperature;BME280_humidity;BME280_pressure;Samples;Min_cycle;Max_cycle;Signal;HPM_P1;HPM_P2
2022/04/22 00:00:17;;;;;;;14.60;7.57;;;10.40;99.90;;;;;;5076085;28;20040;-76
2022/04/22 00:02:42;;;;;;;13.40;7.60;;;10.30;99.90;;;;;;5084690;28;20028;-79
2022/04/22 00:05:08;;;;;;;16.75;8.20;;;10.30;99.90;;;;;;5087552;28;20079;-75
2022/04/22 00:07:33;;;;;;;15.70;8.38;;;10.20;99.90;;;;;;5086816;28;20406;-78
2022/04/22 00:09:59;;;;;;;19.83;8.68;;;10.20;99.90;;;;;;5086108;28;20035;-74
2022/04/22 00:12:25;;;;;;;18.45;9.27;;;10.10;99.90;;;;;;5076827;28;20059;-80
2022/04/22 00:14:50;;;;;;;20.08;9.18;;;10.10;99.90;;;;;;5088670;28;20460;-77
2022/04/22 00:17:16;;;;;;;20.75;10.18;;;10.10;99.90;;;;;;5088688;28;20072;-77
2022/04/22 00:19:41;;;;;;;18.00;9.98;;;10.00;99.90;;;;;;5089506;28;20134;-75
2022/04/22 00:22:07;;;;;;;19.70;9.80;;;10.00;99.90;;;;;;5084932;28;20079;-79
2022/04/22 00:24:32;;;;;;;21.98;11.00;;;10.00;99.90;;;;;;5094003;28;20481;-78
2022/04/22 00:26:58;;;;;;;22.25;10.60;;;9.90;99.90;;;;;;5088687;28;20119;-75
2022/04/22 00:29:23;;;;;;;22.27;10.88;;;9.90;99.90;;;;;;5082152;28;20557;-79
2022/04/22 00:31:49;;;;;;;22.85;10.63;;;9.90;99.90;;;;;;5085497;28;20421;-76
2022/04/22 00:34:15;;;;;;;20.30;10.88;;;9.90;99.90;;;;;;5088307;28;20032;-76
2022/04/22 00:36:40;;;;;;;23.98;11.18;;;9.90;99.90;;;;;;5083248;28;20046;-77
2022/04/22 00:39:06;;;;;;;27.70;11.30;;;9.70;99.90;;;;;;5088080;28;20051;-79
2022/04/22 00:41:32;;;;;;;24.40;11.35;;;9.80;99.90;;;;;;5090345;28;20040;-78
2022/04/22 00:43:57;;;;;;;19.95;11.60;;;9.80;99.90;;;;;;5088182;28;20054;-77
2022/04/22 00:46:23;;;;;;;24.90;11.75;;;9.80;99.90;;;;;;5089010;28;20557;-78
2022/04/22 00:48:48;;;;;;;22.73;11.35;;;9.70;99.90;;;;;;5089309;28;20062;-78
2022/04/22 00:51:16;;;;;;;23.55;12.32;;;9.60;99.90;;;;;;5087611;28;20081;-78
2022/04/22 00:53:46;;;;;;;22.90;11.38;;;9.70;99.90;;;;;;5086863;28;20044;-76
2022/04/22 00:56:12;;;;;;;24.65;12.27;;;9.60;99.90;;;;;;5085479;28;20036;-77
2022/04/22 00:58:40;;;;;;;22.58;12.00;;;9.60;99.90;;;;;;5088503;28;20040;-77
2022/04/22 01:01:06;;;;;;;27.13;11.70;;;9.60;99.90;;;;;;5086917;28;20036;-80
2022/04/22 01:03:32;;;;;;;26.02;11.98;;;9.50;99.90;;;;;;5088113;28;20040;-76
2022/04/22 01:11:32;;;;;;;22.02;11.85;;;9.40;99.90;;;;;;5085817;28;20050;-75
2022/04/22 01:14:02;;;;;;;24.17;12.02;;;9.30;99.90;;;;;;5069875;28;20062;-78
2022/04/22 01:16:28;;;;;;;27.92;11.90;;;9.40;99.90;;;;;;5087907;28;20064;-77
2022/04/22 01:18:55;;;;;;;22.70;11.93;;;9.30;99.90;;;;;;5086447;28;20583;-76
2022/04/22 01:21:20;;;;;;;24.23;11.80;;;9.30;99.90;;;;;;5086175;28;20059;-76
2022/04/22 01:23:46;;;;;;;22.95;12.27;;;9.30;99.90;;;;;;5082471;28;20043;-73
2022/04/22 01:26:13;;;;;;;23.25;11.95;;;9.30;99.90;;;;;;5085924;28;20043;-79
2022/04/22 01:28:39;;;;;;;27.67;13.30;;;9.30;99.90;;;;;;5086215;28;20040;-76
2022/04/22 01:31:05;;;;;;;28.60;12.32;;;9.30;99.90;;;;;;5083118;28;20047;-75
2022/04/22 01:33:31;;;;;;;22.45;12.70;;;9.30;99.90;;;;;;5086168;28;20044;-73
2022/04/22 01:35:56;;;;;;;23.35;12.65;;;9.30;99.90;;;;;;5086224;28;20036;-75
2022/04/22 01:38:22;;;;;;;25.98;12.80;;;9.30;99.90;;;;;;5085252;28;20402;-75
2022/04/22 01:40:48;;;;;;;27.80;13.18;;;9.20;99.90;;;;;;5081038;28;20762;-75
2022/04/22 01:43:13;;;;;;;30.42;13.73;;;9.10;99.90;;;;;;5087005;28;20407;-75
2022/04/22 01:45:39;;;;;;;24.52;12.75;;;9.00;99.90;;;;;;5090258;28;20040;-79
2022/04/22 01:48:04;;;;;;;29.85;13.60;;;9.00;99.90;;;;;;5091279;28;20046;-76
2022/04/22 01:50:30;;;;;;;35.08;14.80;;;8.90;99.90;;;;;;5089349;28;20039;-75
2022/04/22 01:52:56;;;;;;;30.65;13.43;;;8.90;99.90;;;;;;5091115;28;20071;-73
2022/04/22 01:55:22;;;;;;;29.05;13.93;;;8.80;99.90;;;;;;5073850;28;20048;-73
2022/04/22 01:57:48;;;;;;;34.45;14.35;;;8.80;99.90;;;;;;5084965;28;20047;-77
2022/04/22 02:00:13;;;;;;;31.85;14.20;;;8.70;99.90;;;;;;5090083;28;20613;-74
2022/04/22 02:02:39;;;;;;;31.17;14.70;;;8.70;99.90;;;;;;5091767;28;20044;-73
2022/04/22 02:05:06;;;;;;;37.72;15.52;;;8.70;99.90;;;;;;5090004;28;20043;-75
2022/04/22 02:07:32;;;;;;;38.15;16.85;;;8.60;99.90;;;;;;5089663;28;20055;-76
2022/04/22 02:09:57;;;;;;;37.20;16.17;;;8.60;99.90;;;;;;5089502;28;20055;-74
2022/04/22 02:12:23;;;;;;;35.20;15.85;;;8.60;99.90;;;;;;5090299;28;20051;-73
2022/04/22 02:14:48;;;;;;;37.90;15.98;;;8.60;99.90;;;;;;5087938;28;20101;-76
2022/04/22 02:17:14;;;;;;;37.75;16.77;;;8.50;99.90;;;;;;5089236;28;20042;-73
2022/04/22 02:19:40;;;;;;;38.33;16.48;;;8.40;99.90;;;;;;5088400;28;20510;-75
2022/04/22 02:22:07;;;;;;;35.60;17.42;;;8.30;99.90;;;;;;5087832;28;20554;-76
2022/04/22 02:24:32;;;;;;;41.70;18.20;;;8.30;99.90;;;;;;5089850;28;20054;-74
2022/04/22 02:29:42;;;;;;;41.42;16.95;;;8.20;99.90;;;;;;5089503;28;20051;-75
2022/04/22 02:32:08;;;;;;;36.17;17.35;;;8.20;99.90;;;;;;5090365;28;20402;-73
2022/04/22 02:34:34;;;;;;;40.88;18.23;;;8.20;99.90;;;;;;5085908;28;20058;-79
2022/04/22 02:36:59;;;;;;;47.80;19.23;;;8.10;99.90;;;;;;5090124;28;20658;-74
2022/04/22 02:39:25;;;;;;;42.70;17.45;;;8.10;99.90;;;;;;5087031;28;20028;-73
2022/04/22 02:47:18;;;;;;;39.60;17.13;;;7.90;99.90;;;;;;5081584;28;20058;-73
2022/04/22 02:49:44;;;;;;;44.22;16.55;;;7.90;99.90;;;;;;5086753;28;20107;-74
2022/04/22 02:52:14;;;;;;;40.22;16.73;;;7.80;99.90;;;;;;5090084;28;20394;-75
2022/04/22 02:54:40;;;;;;;47.03;18.50;;;7.80;99.90;;;;;;5089089;28;20032;-75
2022/04/22 02:57:07;;;;;;;37.67;17.92;;;7.80;99.90;;;;;;5087477;28;20513;-73
2022/04/22 02:59:32;;;;;;;41.72;18.27;;;7.70;99.90;;;;;;5069368;28;20031;-76
2022/04/22 03:01:59;;;;;;;42.05;18.20;;;7.70;99.90;;;;;;5088163;28;20039;-74
2022/04/22 03:04:26;;;;;;;36.90;16.67;;;7.70;99.90;;;;;;5086885;28;20132;-75
2022/04/22 03:06:51;;;;;;;42.25;17.90;;;7.60;99.90;;;;;;5089008;28;20036;-73
2022/04/22 03:09:17;;;;;;;37.40;17.42;;;7.60;99.90;;;;;;5088226;28;20043;-72
2022/04/22 03:11:43;;;;;;;45.50;18.35;;;7.70;99.90;;;;;;5089822;28;20043;-77
2022/04/22 03:14:08;;;;;;;47.45;19.88;;;7.70;99.90;;;;;;5087589;28;20029;-77
2022/04/22 03:16:35;;;;;;;45.20;18.10;;;7.70;99.90;;;;;;5088885;28;20047;-72
2022/04/22 03:19:01;;;;;;;42.53;17.90;;;7.70;99.90;;;;;;5089093;28;20044;-77
2022/04/22 03:21:26;;;;;;;38.35;17.33;;;7.70;99.90;;;;;;5085900;28;20043;-79
2022/04/22 03:23:52;;;;;;;40.80;17.05;;;7.70;99.90;;;;;;5092284;28;20040;-78
2022/04/22 03:26:18;;;;;;;42.60;17.75;;;7.70;99.90;;;;;;5090118;28;20180;-78
2022/04/22 03:28:44;;;;;;;41.25;18.33;;;7.70;99.90;;;;;;5072840;28;20087;-79
2022/04/22 03:31:10;;;;;;;39.60;18.00;;;7.70;99.90;;;;;;5086499;28;20479;-78
2022/04/22 03:33:36;;;;;;;37.47;18.05;;;7.70;99.90;;;;;;5077387;28;20474;-76
2022/04/22 03:36:02;;;;;;;36.00;16.45;;;7.60;99.90;;;;;;5072554;28;20047;-74
2022/04/22 03:38:27;;;;;;;44.15;17.45;;;7.60;99.90;;;;;;5089314;28;20162;-75
2022/04/22 03:40:53;;;;;;;42.47;16.80;;;7.60;99.90;;;;;;5086487;28;20068;-74
2022/04/22 03:43:21;;;;;;;37.10;17.50;;;7.60;99.90;;;;;;5086191;28;20509;-76
2022/04/22 03:45:46;;;;;;;41.97;16.55;;;7.60;99.90;;;;;;5088538;28;20039;-76
2022/04/22 03:48:15;;;;;;;38.95;17.98;;;7.60;99.90;;;;;;5088957;28;20028;-74
2022/04/22 03:50:41;;;;;;;35.58;16.70;;;7.50;99.90;;;;;;5068976;28;20421;-77
2022/04/22 03:53:11;;;;;;;34.63;15.93;;;7.50;99.90;;;;;;5088832;28;20161;-77
2022/04/22 03:55:37;;;;;;;37.38;16.13;;;7.40;99.90;;;;;;5071818;28;20040;-78
2022/04/22 03:58:12;;;;;;;35.97;16.25;;;7.40;99.90;;;;;;5088128;28;20036;-76
2022/04/22 04:00:48;;;;;;;40.38;16.15;;;7.40;99.90;;;;;;5087525;28;20035;-76
2022/04/22 04:03:15;;;;;;;37.25;15.52;;;7.40;99.90;;;;;;5087260;28;20048;-74
2022/04/22 04:05:49;;;;;;;35.05;14.98;;;7.40;99.90;;;;;;5083843;28;20036;-73
2022/04/22 04:08:16;;;;;;;35.35;14.88;;;7.30;99.90;;;;;;5087265;28;20048;-75
2022/04/22 04:16:10;;;;;;;39.92;15.48;;;7.20;99.90;;;;;;5085319;28;20079;-78
2022/04/22 04:18:37;;;;;;;29.58;14.27;;;7.20;99.90;;;;;;5084195;28;20149;-73
2022/04/22 04:23:50;;;;;;;30.77;13.68;;;7.10;99.90;;;;;;5083180;28;20051;-76
2022/04/22 04:26:16;;;;;;;32.97;13.82;;;7.10;99.90;;;;;;5087824;28;20028;-75
2022/04/22 04:28:44;;;;;;;30.45;13.05;;;7.10;99.90;;;;;;5085298;28;20079;-75
2022/04/22 04:31:11;;;;;;;33.92;13.52;;;7.10;99.90;;;;;;5086729;28;20055;-74
2022/04/22 04:33:37;;;;;;;32.00;13.55;;;7.10;99.90;;;;;;5085900;28;20340;-76
2022/04/22 04:36:04;;;;;;;31.60;13.18;;;7.10;99.90;;;;;;5087210;28;20040;-75
2022/04/22 04:38:31;;;;;;;27.10;12.95;;;7.10;99.90;;;;;;5084499;28;20040;-78
2022/04/22 04:40:57;;;;;;;28.65;12.60;;;7.10;99.90;;;;;;5085232;28;20036;-77
2022/04/22 04:43:23;;;;;;;30.15;12.68;;;7.00;99.90;;;;;;5088032;28;20115;-78
2022/04/22 04:45:50;;;;;;;29.20;12.25;;;7.00;99.90;;;;;;5071193;28;20123;-73
2022/04/22 04:48:16;;;;;;;25.08;11.75;;;7.00;99.90;;;;;;5085384;28;20040;-75
2022/04/22 04:50:43;;;;;;;25.92;11.50;;;7.10;99.90;;;;;;5087407;28;20118;-73
2022/04/22 04:53:10;;;;;;;23.73;11.73;;;7.10;99.90;;;;;;5083495;28;20059;-73
2022/04/22 04:55:35;;;;;;;23.30;11.65;;;7.10;99.90;;;;;;5087851;28;20040;-74
2022/04/22 04:58:02;;;;;;;25.63;11.18;;;7.20;99.90;;;;;;5087105;28;20040;-75
2022/04/22 05:00:28;;;;;;;24.30;10.88;;;7.10;99.90;;;;;;5087044;28;20513;-73
2022/04/22 05:02:55;;;;;;;21.23;10.77;;;7.10;99.90;;;;;;5085585;28;20086;-73
2022/04/22 05:05:20;;;;;;;26.40;10.55;;;7.20;99.90;;;;;;5087139;28;20036;-73
2022/04/22 05:07:50;;;;;;;24.35;10.63;;;7.20;99.90;;;;;;5086537;28;20089;-75
2022/04/22 05:10:18;;;;;;;21.80;10.77;;;7.20;99.90;;;;;;5084283;28;20036;-76
2022/04/22 05:12:47;;;;;;;26.90;11.05;;;7.30;99.90;;;;;;5084389;28;20050;-77
2022/04/22 05:15:14;;;;;;;24.83;10.05;;;7.30;99.90;;;;;;5086831;28;20491;-76
2022/04/22 05:17:44;;;;;;;21.85;10.13;;;7.30;99.90;;;;;;5088514;28;20040;-77
2022/04/22 05:20:11;;;;;;;23.15;10.18;;;7.40;99.90;;;;;;5088572;28;20123;-75
2022/04/22 05:22:38;;;;;;;26.15;10.13;;;7.50;99.90;;;;;;5092059;28;20043;-77
2022/04/22 05:25:05;;;;;;;23.83;10.30;;;7.50;99.90;;;;;;5089966;28;20503;-73
2022/04/22 05:27:32;;;;;;;20.55;9.70;;;7.60;99.90;;;;;;5087288;28;20044;-78
2022/04/22 05:32:47;;;;;;;19.60;9.00;;;7.80;99.90;;;;;;5090344;28;20052;-74
2022/04/22 05:35:13;;;;;;;23.83;9.73;;;7.80;99.90;;;;;;5087819;28;20044;-73
2022/04/22 05:37:56;;;;;;;21.67;8.82;;;7.90;99.90;;;;;;5091009;28;20036;-75
2022/04/22 05:40:24;;;;;;;22.05;9.23;;;7.90;99.90;;;;;;5087433;28;20035;-73
2022/04/22 05:42:51;;;;;;;18.65;8.82;;;8.00;99.90;;;;;;5086265;28;20044;-76
2022/04/22 05:45:17;;;;;;;18.35;8.75;;;8.00;99.90;;;;;;5090283;28;20032;-72
2022/04/22 05:47:43;;;;;;;21.85;9.02;;;8.00;99.90;;;;;;5090944;28;20048;-78
2022/04/22 05:50:11;;;;;;;17.95;9.63;;;8.00;99.90;;;;;;5087748;28;20048;-76
2022/04/22 05:52:37;;;;;;;21.55;9.25;;;8.00;99.90;;;;;;5089248;28;20371;-75
2022/04/22 05:55:06;;;;;;;15.48;8.55;;;8.10;99.90;;;;;;5089286;28;20793;-80
2022/04/22 05:57:33;;;;;;;21.75;8.93;;;8.10;99.90;;;;;;5088604;28;20048;-77
2022/04/22 06:00:00;;;;;;;21.10;8.73;;;8.10;99.90;;;;;;5086953;28;20475;-73
2022/04/22 06:02:26;;;;;;;17.73;8.60;;;8.20;99.90;;;;;;5087029;28;20123;-74
2022/04/22 06:04:52;;;;;;;21.30;8.88;;;8.20;99.90;;;;;;5086067;28;20494;-79
2022/04/22 06:07:18;;;;;;;21.67;9.15;;;8.20;99.90;;;;;;5085775;28;20039;-80
2022/04/22 06:12:28;;;;;;;19.45;8.43;;;8.30;99.90;;;;;;5090277;28;20119;-72
2022/04/22 06:14:53;;;;;;;20.33;8.45;;;8.40;99.90;;;;;;5088941;28;20035;-75
2022/04/22 06:17:19;;;;;;;20.65;8.63;;;8.40;99.90;;;;;;5091035;28;20055;-78
2022/04/22 06:19:45;;;;;;;22.75;8.48;;;8.40;99.90;;;;;;5090887;28;20050;-74
2022/04/22 06:22:10;;;;;;;15.15;7.47;;;8.50;99.90;;;;;;5073766;28;20047;-79
2022/04/22 06:24:36;;;;;;;19.35;8.38;;;8.60;99.90;;;;;;5091422;28;20517;-74
2022/04/22 06:27:01;;;;;;;18.98;8.02;;;8.80;99.90;;;;;;5091296;28;20040;-77
2022/04/22 06:29:27;;;;;;;18.70;7.93;;;8.80;99.90;;;;;;5104737;27;20032;-73
2022/04/22 06:31:54;;;;;;;17.83;8.25;;;8.90;99.90;;;;;;5087415;28;20032;-78
2022/04/22 06:34:20;;;;;;;17.15;7.90;;;8.90;99.90;;;;;;5090586;28;20047;-73
2022/04/22 06:36:46;;;;;;;20.92;8.27;;;8.90;99.90;;;;;;5089306;28;20173;-70
2022/04/22 06:39:13;;;;;;;17.98;8.77;;;8.90;99.90;;;;;;5089964;28;20028;-74
2022/04/22 06:47:09;;;;;;;16.58;8.48;;;9.30;99.90;;;;;;5081929;28;20135;-77
2022/04/22 06:49:34;;;;;;;17.35;7.88;;;9.40;99.90;;;;;;5088489;28;20461;-78
2022/04/22 06:52:01;;;;;;;19.27;8.25;;;9.50;99.90;;;;;;5089796;28;20051;-75
2022/04/22 06:54:27;;;;;;;15.68;7.97;;;9.60;99.90;;;;;;5089827;28;20100;-72
2022/04/22 06:56:53;;;;;;;16.15;7.97;;;9.70;99.90;;;;;;5089363;28;20135;-76
2022/04/22 06:59:21;;;;;;;15.55;8.15;;;9.70;99.90;;;;;;5078210;28;20039;-76
2022/04/22 07:01:47;;;;;;;17.30;7.72;;;9.80;99.90;;;;;;5104885;27;20043;-78
2022/04/22 07:04:14;;;;;;;17.48;7.97;;;9.80;99.90;;;;;;5089506;28;20032;-75
2022/04/22 07:06:42;;;;;;;18.10;8.00;;;9.90;99.90;;;;;;5089593;28;20115;-76
2022/04/22 07:09:10;;;;;;;17.67;8.32;;;10.00;99.90;;;;;;5089290;28;20044;-77
2022/04/22 07:11:37;;;;;;;18.70;8.45;;;10.00;99.90;;;;;;5086842;28;20028;-78
2022/04/22 07:14:03;;;;;;;16.38;8.00;;;10.00;99.90;;;;;;5089174;28;20130;-74
2022/04/22 07:16:29;;;;;;;16.83;8.23;;;10.00;99.90;;;;;;5089565;28;20119;-75
2022/04/22 07:18:59;;;;;;;16.27;7.88;;;10.10;99.90;;;;;;5085058;28;20039;-77
2022/04/22 07:21:25;;;;;;;15.52;7.63;;;10.20;99.90;;;;;;5089663;28;20036;-75
2022/04/22 07:23:52;;;;;;;19.48;8.07;;;10.20;99.90;;;;;;5072912;28;20100;-75
2022/04/22 07:26:19;;;;;;;19.42;7.53;;;10.30;99.90;;;;;;5088635;28;20312;-72
2022/04/22 07:28:47;;;;;;;14.27;7.20;;;10.40;99.90;;;;;;5071611;28;20044;-79
2022/04/22 07:31:16;;;;;;;15.80;7.30;;;10.50;99.90;;;;;;5093267;28;20032;-75
2022/04/22 07:33:41;;;;;;;13.77;6.53;;;10.60;99.90;;;;;;5079960;28;20062;-75
2022/04/22 07:36:08;;;;;;;14.38;7.95;;;10.70;99.90;;;;;;5074011;28;20478;-77
2022/04/22 07:38:34;;;;;;;12.32;6.90;;;10.70;99.90;;;;;;5089510;28;20044;-74
2022/04/22 07:40:59;;;;;;;15.25;6.85;;;10.80;99.90;;;;;;5086910;28;20039;-79
2022/04/22 07:48:56;;;;;;;15.73;7.45;;;11.00;99.90;;;;;;5088022;28;20138;-73
2022/04/22 07:51:26;;;;;;;16.27;7.13;;;11.00;99.90;;;;;;5093168;28;20074;-71
2022/04/22 07:53:52;;;;;;;15.32;7.38;;;11.10;99.90;;;;;;5090855;28;20055;-78
2022/04/22 07:56:18;;;;;;;13.52;7.05;;;11.20;99.90;;;;;;5084245;28;20051;-75
2022/04/22 07:58:43;;;;;;;15.65;6.53;;;11.20;99.90;;;;;;5091159;28;20054;-78
2022/04/22 08:01:09;;;;;;;14.93;7.20;;;11.40;99.90;;;;;;5090645;28;20504;-75
2022/04/22 08:03:36;;;;;;;15.50;6.97;;;11.40;99.90;;;;;;5091196;28;20036;-76
2022/04/22 08:06:02;;;;;;;11.10;6.95;;;11.50;99.90;;;;;;5088982;28;20039;-80
2022/04/22 08:08:30;;;;;;;13.73;6.80;;;11.50;99.90;;;;;;5090496;28;20480;-80
2022/04/22 08:10:56;;;;;;;15.75;6.88;;;11.60;99.90;;;;;;5073279;28;20079;-78
2022/04/22 08:13:22;;;;;;;13.48;6.78;;;11.60;99.90;;;;;;5087823;28;20031;-77
2022/04/22 08:15:47;;;;;;;12.00;7.00;;;11.70;99.90;;;;;;5091452;28;20040;-78
2022/04/22 08:18:13;;;;;;;12.88;6.47;;;11.70;99.90;;;;;;5090001;28;20498;-82
2022/04/22 08:20:38;;;;;;;11.48;6.28;;;11.80;99.90;;;;;;5074750;28;20040;-75
2022/04/22 08:23:05;;;;;;;11.07;6.20;;;11.80;99.90;;;;;;5081687;28;20047;-77
2022/04/22 08:25:31;;;;;;;11.90;6.55;;;12.00;99.90;;;;;;5089680;28;20093;-76
2022/04/22 08:27:56;;;;;;;13.65;6.05;;;12.10;99.90;;;;;;5088523;28;20043;-77
2022/04/22 08:30:22;;;;;;;8.25;5.85;;;12.20;99.90;;;;;;5087067;28;20046;-77
2022/04/22 08:32:48;;;;;;;12.43;5.90;;;12.20;99.90;;;;;;5082926;28;20037;-77
2022/04/22 08:35:13;;;;;;;11.90;5.65;;;12.20;99.90;;;;;;5072015;28;20097;-76
2022/04/22 08:37:42;;;;;;;18.63;7.18;;;12.40;99.90;;;;;;5088673;28;20082;-81
2022/04/22 08:40:08;;;;;;;10.20;5.88;;;12.50;99.90;;;;;;5064127;28;20039;-76
2022/04/22 08:42:39;;;;;;;10.60;5.15;;;12.60;99.90;;;;;;5087316;28;20028;-74
2022/04/22 08:45:06;;;;;;;11.50;6.57;;;12.70;99.90;;;;;;5089837;28;20070;-74
2022/04/22 08:50:16;;;;;;;9.68;4.72;;;12.80;99.90;;;;;;5087755;28;20146;-76
2022/04/22 08:52:49;;;;;;;14.57;4.95;;;12.80;99.90;;;;;;5072285;28;20135;-77
2022/04/22 08:55:17;;;;;;;8.57;5.03;;;12.90;99.90;;;;;;5083270;28;20044;-78
2022/04/22 08:57:43;;;;;;;12.48;4.82;;;13.00;99.90;;;;;;5090621;28;20131;-79
2022/04/22 09:00:09;;;;;;;12.00;4.93;;;13.20;99.90;;;;;;5089288;28;20123;-75
2022/04/22 09:02:34;;;;;;;9.73;4.93;;;13.10;99.90;;;;;;5087485;28;20042;-76
2022/04/22 09:05:00;;;;;;;8.40;4.82;;;13.30;99.90;;;;;;5088307;28;20089;-74
2022/04/22 09:07:27;;;;;;;9.02;4.72;;;13.30;99.90;;;;;;5089625;28;20051;-73
2022/04/22 09:09:53;;;;;;;9.40;4.20;;;13.30;99.90;;;;;;5088229;28;20051;-78
2022/04/22 09:12:21;;;;;;;10.73;4.22;;;13.40;99.90;;;;;;5090716;28;20044;-80
2022/04/22 09:14:49;;;;;;;7.55;4.45;;;13.50;99.90;;;;;;5090888;28;20052;-76
2022/04/22 09:17:36;;;;;;;11.30;4.18;;;13.50;99.90;;;;;;5090022;28;20123;-78
2022/04/22 09:20:03;;;;;;;8.00;3.97;;;13.60;99.90;;;;;;5089370;28;20083;-77
2022/04/22 09:22:34;;;;;;;9.30;3.97;;;13.60;99.90;;;;;;5088312;28;20313;-79
2022/04/22 09:25:01;;;;;;;8.93;3.90;;;13.70;99.90;;;;;;5089995;28;20405;-80
2022/04/22 09:27:43;;;;;;;8.48;4.35;;;13.80;99.90;;;;;;5086811;28;20097;-80
2022/04/22 09:30:11;;;;;;;7.82;3.50;;;13.90;99.90;;;;;;5078129;28;20047;-75
2022/04/22 09:32:40;;;;;;;5.10;3.80;;;14.00;99.90;;;;;;5088310;28;20089;-81
2022/04/22 09:35:19;;;;;;;7.32;3.80;;;14.00;99.90;;;;;;5086793;28;20096;-78
2022/04/22 09:43:37;;;;;;;10.75;4.03;;;14.20;99.90;;;;;;5073990;28;20050;-78
2022/04/22 09:46:04;;;;;;;7.10;3.85;;;14.40;99.90;;;;;;5089086;28;20040;-77
2022/04/22 09:48:46;;;;;;;8.95;4.03;;;14.50;99.90;;;;;;5088266;28;20403;-79
2022/04/22 09:51:24;;;;;;;9.43;4.55;;;14.50;99.90;;;;;;5085784;28;20071;-76
2022/04/22 09:54:01;;;;;;;7.88;3.53;;;14.60;99.90;;;;;;5082223;28;20052;-80
2022/04/22 09:56:28;;;;;;;18.08;4.50;;;14.60;99.90;;;;;;5088652;28;20057;-73
2022/04/22 09:58:54;;;;;;;9.73;3.50;;;14.70;99.90;;;;;;5104683;28;20100;-74
2022/04/22 10:01:19;;;;;;;7.00;3.70;;;14.80;99.90;;;;;;5086916;28;20036;-76
2022/04/22 10:03:45;;;;;;;6.72;3.72;;;14.80;99.90;;;;;;5069476;28;20036;-72
2022/04/22 10:06:12;;;;;;;7.88;3.70;;;14.90;99.90;;;;;;5071902;28;20045;-75
2022/04/22 10:08:39;;;;;;;10.32;3.80;;;15.00;99.90;;;;;;5071299;28;20098;-76
2022/04/22 10:11:07;;;;;;;8.88;4.28;;;15.10;99.90;;;;;;5078945;28;20540;-73
2022/04/22 10:13:41;;;;;;;7.32;3.85;;;15.10;97.20;;;;;;5074602;28;20040;-73
2022/04/22 10:16:10;;;;;;;6.85;3.92;;;15.20;99.90;;;;;;5091808;28;20048;-75
2022/04/22 10:18:37;;;;;;;8.05;4.10;;;15.20;99.90;;;;;;5091851;28;20039;-77
2022/04/22 10:21:03;;;;;;;10.38;4.07;;;15.30;99.90;;;;;;5076063;28;20037;-77
2022/04/22 10:23:30;;;;;;;9.68;4.30;;;15.40;99.90;;;;;;5072307;28;20032;-75
2022/04/22 10:25:57;;;;;;;11.43;4.35;;;15.40;99.60;;;;;;5080860;28;20051;-78
2022/04/22 10:28:23;;;;;;;10.45;3.75;;;15.50;99.90;;;;;;5091097;28;20047;-79
2022/04/22 10:30:52;;;;;;;9.75;4.10;;;15.50;98.10;;;;;;5089454;28;20048;-76
2022/04/22 10:33:18;;;;;;;15.18;4.43;;;15.50;98.40;;;;;;5091618;28;20148;-77
2022/04/22 10:35:45;;;;;;;7.28;3.72;;;15.60;99.00;;;;;;5091029;28;20131;-75
2022/04/22 10:38:27;;;;;;;21.70;4.43;;;15.60;96.10;;;;;;5091943;28;20043;-79
2022/04/22 10:40:53;;;;;;;11.25;4.38;;;15.60;99.90;;;;;;5090693;28;20036;-78
2022/04/22 10:43:19;;;;;;;6.60;3.85;;;15.70;99.90;;;;;;5088846;28;20047;-77
2022/04/22 10:48:30;;;;;;;7.82;3.85;;;15.80;99.90;;;;;;5081551;28;20050;-77
2022/04/22 10:51:03;;;;;;;6.65;4.20;;;15.90;99.90;;;;;;5090834;28;20545;-73
2022/04/22 10:53:34;;;;;;;9.23;4.28;;;16.00;99.80;;;;;;5089637;28;20035;-76
2022/04/22 10:56:25;;;;;;;10.83;4.40;;;16.10;99.90;;;;;;5092296;28;20395;-78
2022/04/22 10:59:16;;;;;;;19.48;5.15;;;16.30;97.70;;;;;;5093045;28;20044;-77
2022/04/22 11:01:42;;;;;;;10.57;4.45;;;16.20;99.60;;;;;;5091773;28;20054;-77
2022/04/22 11:04:18;;;;;;;10.18;4.68;;;16.30;97.70;;;;;;5092003;28;20046;-80
2022/04/22 11:06:44;;;;;;;8.50;4.38;;;16.30;99.90;;;;;;5089034;28;20111;-79
2022/04/22 11:09:09;;;;;;;10.77;4.97;;;16.30;97.60;;;;;;5084326;28;20471;-79
2022/04/22 11:11:40;;;;;;;31.05;6.10;;;16.30;98.00;;;;;;5094735;28;20156;-77
2022/04/22 11:14:19;;;;;;;7.53;4.70;;;16.30;98.50;;;;;;5087208;28;20122;-78
2022/04/22 11:16:45;;;;;;;8.82;4.43;;;16.50;98.00;;;;;;5092261;28;20044;-78
2022/04/22 11:19:17;;;;;;;11.38;5.35;;;16.50;99.90;;;;;;5084447;28;20073;-80
2022/04/22 11:21:44;;;;;;;8.65;4.88;;;16.60;98.60;;;;;;5090423;28;20058;-77
2022/04/22 11:24:20;;;;;;;12.32;5.70;;;16.70;99.90;;;;;;5082420;28;20032;-78
2022/04/22 11:26:46;;;;;;;11.82;5.38;;;16.80;99.90;;;;;;5073547;28;20050;-78
2022/04/22 11:29:13;;;;;;;16.52;5.25;;;16.90;99.90;;;;;;5090546;28;20569;-83
2022/04/22 11:31:40;;;;;;;10.40;5.10;;;16.90;99.90;;;;;;5091641;28;20044;-79
2022/04/22 11:34:11;;;;;;;10.00;5.60;;;16.90;96.80;;;;;;5090337;28;20453;-80
2022/04/22 11:36:48;;;;;;;9.23;5.38;;;16.90;98.50;;;;;;5092154;28;20090;-81
2022/04/22 11:39:22;;;;;;;9.90;5.60;;;16.80;95.30;;;;;;5090236;28;20044;-79
2022/04/22 11:41:57;;;;;;;10.63;5.40;;;16.80;99.90;;;;;;5090857;28;20044;-75
2022/04/22 11:44:27;;;;;;;23.15;6.07;;;16.90;96.30;;;;;;5090500;28;20529;-70
2022/04/22 11:46:53;;;;;;;13.80;5.47;;;16.90;96.00;;;;;;5088928;28;20040;-79
2022/04/22 11:49:19;;;;;;;10.73;5.93;;;17.00;99.90;;;;;;5090360;28;20050;-80
2022/04/22 11:51:46;;;;;;;10.82;6.30;;;17.10;99.90;;;;;;5083994;28;20064;-75
2022/04/22 11:54:11;;;;;;;15.27;6.13;;;17.10;98.00;;;;;;5071760;28;20047;-81
2022/04/22 11:56:37;;;;;;;11.98;5.90;;;17.10;99.10;;;;;;5070834;28;20048;-75
2022/04/22 11:59:02;;;;;;;13.75;6.25;;;17.20;99.30;;;;;;5070976;28;20376;-73
2022/04/22 12:08:00;;;;;;;10.48;6.25;;;17.30;97.80;;;;;;5087232;28;20101;-78
2022/04/22 12:10:00;;;;;;;15.23;6.32;;;17.30;98.90;;;;;;5090196;28;20036;-79
2022/04/22 12:12:28;;;;;;;10.00;5.90;;;17.30;94.50;;;;;;5091420;28;20054;-78
2022/04/22 12:15:02;;;;;;;9.23;5.95;;;17.30;94.80;;;;;;5089754;28;20124;-76
2022/04/22 12:17:28;;;;;;;12.50;6.72;;;17.30;95.50;;;;;;5089792;28;20047;-79
2022/04/22 12:19:54;;;;;;;10.60;6.20;;;17.50;95.50;;;;;;5086288;28;20064;-75
2022/04/22 12:22:24;;;;;;;13.02;6.38;;;17.50;95.90;;;;;;5069155;28;20072;-74
2022/04/22 12:25:13;;;;;;;9.93;6.55;;;17.40;95.00;;;;;;5087785;28;20454;-74
2022/04/22 12:27:40;;;;;;;14.38;7.40;;;17.30;91.60;;;;;;5089499;28;20128;-75
2022/04/22 12:30:08;;;;;;;13.65;6.60;;;17.30;93.00;;;;;;5089044;28;20048;-73
2022/04/22 12:32:37;;;;;;;9.25;6.68;;;17.50;99.90;;;;;;5089860;28;20048;-73
2022/04/22 12:35:13;;;;;;;12.13;6.60;;;17.70;98.60;;;;;;5089766;28;20044;-71
2022/04/22 12:37:52;;;;;;;10.52;5.97;;;17.90;95.00;;;;;;5088756;28;20056;-76
2022/04/22 12:40:19;;;;;;;12.48;6.35;;;18.00;98.60;;;;;;5088629;28;20040;-76
2022/04/22 12:42:46;;;;;;;16.45;7.10;;;18.10;97.90;;;;;;5089453;28;20059;-74
2022/04/22 12:54:07;;;;;;;11.90;7.88;;;17.90;83.00;;;;;;5085403;28;20473;-76
2022/04/22 12:56:34;;;;;;;15.13;7.72;;;17.60;92.00;;;;;;5052405;28;20047;-71
2022/04/22 12:59:01;;;;;;;12.68;8.18;;;17.70;94.10;;;;;;5068208;28;20071;-79
2022/04/22 13:01:28;;;;;;;13.43;7.15;;;17.80;95.40;;;;;;5088512;28;20044;-70
2022/04/22 13:03:55;;;;;;;15.50;8.18;;;18.00;95.60;;;;;;5088897;28;20038;-77
2022/04/22 13:06:43;;;;;;;15.82;8.75;;;18.10;91.10;;;;;;5089384;28;20510;-71
2022/04/22 13:09:11;;;;;;;16.60;8.85;;;18.10;90.60;;;;;;5088898;28;20360;-77
2022/04/22 13:11:37;;;;;;;14.07;8.25;;;18.20;92.50;;;;;;5080643;28;20075;-76
2022/04/22 13:14:04;;;;;;;13.95;8.18;;;18.20;89.50;;;;;;5068787;28;20131;-76
2022/04/22 13:16:30;;;;;;;16.45;9.40;;;18.00;91.00;;;;;;5051999;28;20145;-74
2022/04/22 13:18:56;;;;;;;19.02;9.07;;;18.00;93.70;;;;;;5073237;28;20566;-72
2022/04/22 13:21:22;;;;;;;15.60;9.27;;;18.00;96.80;;;;;;5088971;28;20122;-78
2022/04/22 13:23:47;;;;;;;16.67;9.38;;;18.10;93.50;;;;;;5072482;28;20127;-75
2022/04/22 13:26:13;;;;;;;18.08;9.45;;;18.00;91.10;;;;;;5089891;28;20039;-75
2022/04/22 13:28:39;;;;;;;13.98;8.82;;;17.80;84.30;;;;;;5080537;28;20056;-73
2022/04/22 13:31:04;;;;;;;15.75;9.77;;;17.80;95.00;;;;;;5069125;28;20090;-79
2022/04/22 13:33:32;;;;;;;13.15;8.93;;;18.00;96.70;;;;;;5069721;28;20135;-71
2022/04/22 13:36:04;;;;;;;15.38;9.30;;;18.00;98.00;;;;;;5069441;28;20098;-78
2022/04/22 13:38:33;;;;;;;17.77;9.40;;;17.80;93.40;;;;;;5072377;28;20041;-75
2022/04/22 13:41:00;;;;;;;14.32;10.20;;;17.60;96.00;;;;;;5073060;28;20128;-72
2022/04/22 13:43:30;;;;;;;14.80;9.38;;;17.40;96.00;;;;;;5073158;28;20080;-73